Terminal Aerodrome Forecast
Issued by NWS

Home | Current Version | Previous Version | Text Only | Print | Product List | Glossary On
Versions: 1 2 3 4 5 6 7 8 9 10 11 12 13 14 15 16 17 18 19 20 21 22 23 24
435
FTUS44 KOUN 211120
TAFHBR
TAF
KHBR 211120Z 2112/2212 19020G30KT P6SM BKN025
      TEMPO 2114/2117 SCT025 BKN100
     FM211700 20019G28KT P6SM SCT050 BKN120
      TEMPO 2122/2201 VRB25G35KT 1SM +TSRA BKN020CB
     FM220100 35020G27KT P6SM SKC
     FM220600 36013KT P6SM SKC=

USA.gov is the U.S. government's official web portal to all federal, state and local government web resources and services.